createdAt,value
2023-09-17T00:55:19.585Z,20.19
2023-09-17T00:58:25.394Z,19.34
2023-09-17T01:05:06.086Z,19.57
2023-09-17T01:32:33.149Z,19.62
2023-09-17T01:45:46.965Z,19.98
2023-09-17T01:51:40.815Z,18.30
2023-09-17T01:54:42.255Z,18.63
2023-09-17T01:57:43.876Z,19.21
2023-09-17T02:00:34.059Z,19.61
2023-09-17T02:03:12.899Z,19.87
2023-09-17T02:06:00.580Z,20.08
2023-09-17T02:08:40.810Z,20.24
2023-09-17T02:17:26.262Z,18.76
2023-09-17T02:20:23.130Z,18.11
2023-09-17T02:25:59.608Z,18.99
2023-09-17T02:28:33.637Z,19.37
2023-09-17T02:31:04.601Z,19.63
2023-09-17T02:33:36.708Z,19.82
2023-09-17T02:36:10.086Z,19.98
2023-09-17T02:38:52.927Z,20.12
2023-09-17T02:41:35.378Z,20.25
2023-09-17T02:44:07.283Z,20.31
2023-09-17T02:46:38.860Z,19.64
2023-09-17T02:49:11.621Z,18.79
2023-09-17T02:51:43.003Z,18.32
2023-09-17T02:54:12.375Z,18.69
2023-09-17T02:56:43.379Z,19.18
2023-09-17T02:59:17.559Z,19.50
2023-09-17T03:01:56.334Z,19.74
2023-09-17T03:04:27.586Z,19.92
2023-09-17T03:07:00.220Z,20.07
2023-09-17T03:09:32.208Z,19.98
2023-09-17T03:12:02.551Z,19.18
2023-09-17T03:14:34.350Z,18.38
2023-09-17T03:17:04.194Z,18.30
2023-09-17T03:19:35.302Z,18.79
2023-09-17T03:22:06.837Z,19.21
2023-09-17T03:24:39.304Z,19.50
2023-09-17T03:27:08.225Z,19.71
2023-09-17T03:29:38.337Z,19.87
2023-09-17T03:32:06.080Z,20.01
2023-09-17T03:34:35.264Z,20.14
2023-09-17T03:37:03.730Z,20.17
2023-09-17T03:39:31.924Z,19.53
2023-09-17T03:41:59.840Z,18.68
2023-09-17T03:44:32.056Z,18.21
2023-09-17T03:47:02.031Z,18.56
2023-09-17T03:49:31.134Z,19.02
2023-09-17T03:51:58.857Z,19.35
2023-09-17T03:54:28.192Z,19.59
2023-09-17T03:56:55.815Z,19.76
2023-09-17T03:59:23.398Z,19.92
2023-09-17T04:01:50.971Z,20.06
2023-09-17T04:04:19.198Z,20.18
2023-09-17T04:06:47.619Z,20.28
2023-09-17T04:09:17.295Z,20.35
2023-09-17T04:11:45.098Z,19.76
2023-09-17T04:14:13.360Z,18.90
2023-09-17T04:16:46.544Z,18.27
2023-09-17T04:19:16.953Z,18.50
2023-09-17T04:21:45.904Z,18.97
2023-09-17T04:24:13.428Z,19.32
2023-09-17T04:26:49.615Z,19.57
2023-09-17T04:29:33.199Z,19.76
2023-09-17T04:32:21.446Z,19.91
2023-09-17T04:35:04.134Z,20.07
2023-09-17T04:37:57.220Z,20.19
2023-09-17T04:40:52.306Z,19.82
2023-09-17T04:43:23.979Z,18.98
2023-09-17T04:45:52.100Z,18.26
2023-09-17T04:48:33.877Z,18.28
2023-09-17T04:51:01.336Z,18.76
2023-09-17T04:53:31.115Z,19.18
2023-09-17T04:55:59.772Z,19.45
2023-09-17T04:58:34.692Z,19.66
2023-09-17T05:01:04.114Z,19.83
2023-09-17T05:03:33.502Z,20.00
2023-09-17T05:06:01.107Z,20.16
2023-09-17T05:08:29.195Z,20.31
2023-09-17T05:10:57.384Z,20.46
2023-09-17T05:13:25.137Z,20.61
2023-09-17T05:15:55.385Z,20.72
2023-09-17T05:18:39.034Z,20.12
2023-09-17T05:21:19.257Z,19.28
2023-09-17T05:24:11.193Z,19.08
2023-09-17T05:26:46.349Z,19.61
2023-09-17T05:29:18.018Z,20.04
2023-09-17T05:31:46.817Z,20.38
2023-09-17T05:34:15.746Z,20.64
2023-09-17T05:36:43.153Z,20.87
2023-09-17T05:39:10.967Z,21.08
2023-09-17T05:41:41.484Z,21.29
2023-09-17T05:44:09.649Z,21.46
2023-09-17T05:46:37.616Z,21.04
2023-09-17T05:49:06.189Z,20.30
2023-09-17T05:51:34.521Z,19.79
2023-09-17T05:54:02.706Z,20.08
2023-09-17T05:56:30.207Z,20.61
2023-09-17T05:58:58.359Z,21.03
2023-09-17T06:01:26.111Z,21.35
2023-09-17T06:03:55.651Z,21.62
2023-09-17T06:06:25.498Z,21.77
2023-09-17T06:08:56.486Z,21.21
2023-09-17T06:11:25.962Z,20.51
2023-09-17T06:13:54.666Z,20.03
2023-09-17T06:16:24.112Z,20.29
2023-09-17T06:18:53.061Z,20.88
2023-09-17T06:21:29.124Z,21.39
2023-09-17T06:23:59.651Z,21.79
2023-09-17T06:26:33.533Z,22.12
2023-09-17T06:29:06.036Z,21.77
2023-09-17T06:31:35.326Z,21.14
2023-09-17T06:34:28.555Z,20.61
2023-09-17T06:37:16.627Z,20.65
2023-09-17T06:40:12.994Z,21.44
2023-09-17T06:42:42.450Z,22.06
2023-09-17T06:45:20.452Z,22.49
2023-09-17T06:51:04.445Z,21.54
2023-09-17T06:53:49.565Z,21.17
2023-09-17T07:08:28.957Z,22.73
2023-09-17T07:11:08.462Z,22.25
2023-09-17T07:13:45.784Z,21.97
2023-09-17T07:16:16.872Z,21.86
2023-09-17T07:18:52.469Z,22.43
2023-09-17T07:21:22.603Z,23.28
2023-09-17T07:23:53.762Z,23.54
2023-09-17T07:26:22.515Z,23.17
2023-09-17T07:28:51.411Z,22.85
2023-09-17T07:31:20.011Z,22.66
2023-09-17T07:33:48.669Z,22.52
2023-09-17T07:36:25.075Z,22.45
2023-09-17T07:38:52.433Z,22.51
2023-09-17T07:41:20.784Z,23.25
2023-09-17T07:43:47.953Z,24.08
2023-09-17T07:46:18.587Z,24.27
2023-09-17T07:48:48.273Z,23.93
2023-09-17T07:51:17.115Z,23.68
2023-09-17T07:53:44.748Z,23.54
2023-09-17T07:56:11.899Z,23.47
2023-09-17T07:58:39.483Z,23.44
2023-09-17T08:01:12.706Z,23.45
2023-09-17T08:03:41.377Z,23.45
2023-09-17T08:06:08.722Z,23.44
2023-09-17T08:08:35.955Z,23.46
2023-09-17T08:11:04.470Z,23.45
2023-09-17T08:13:41.652Z,23.46
2023-09-17T08:16:09.808Z,23.48
2023-09-17T08:18:36.966Z,23.53
2023-09-17T08:21:04.867Z,23.60
2023-09-17T08:23:31.947Z,23.69
2023-09-17T08:25:59.945Z,23.79
2023-09-17T08:28:28.726Z,23.86
2023-09-17T08:30:56.808Z,23.93
2023-09-17T08:33:23.955Z,24.01
2023-09-17T08:35:51.202Z,24.11
2023-09-17T08:38:19.661Z,24.21
2023-09-17T08:40:48.267Z,24.32
2023-09-17T08:43:17.058Z,24.43
2023-09-17T08:45:44.195Z,24.53
2023-09-17T08:48:11.824Z,24.62
2023-09-17T08:50:40.319Z,24.71
2023-09-17T08:53:10.882Z,24.82
2023-09-17T08:55:38.823Z,24.92
2023-09-17T08:58:15.570Z,25.02
2023-09-17T09:00:50.523Z,25.13
2023-09-17T09:03:21.713Z,25.21
2023-09-17T09:05:51.592Z,25.29
2023-09-17T09:08:20.262Z,25.37
2023-09-17T09:10:51.451Z,25.42
2023-09-17T09:13:19.666Z,25.53
2023-09-17T09:15:48.185Z,25.64
2023-09-17T09:18:15.711Z,25.71
2023-09-17T09:20:43.171Z,25.78
2023-09-17T09:23:10.217Z,25.88
2023-09-17T09:25:38.788Z,25.99
2023-09-17T09:28:06.723Z,26.11
2023-09-17T09:30:37.275Z,26.21
2023-09-17T09:33:05.277Z,26.28
2023-09-17T09:35:33.281Z,26.39
2023-09-17T09:38:02.041Z,26.52
2023-09-17T09:40:30.257Z,26.64
2023-09-17T09:42:58.129Z,26.74
2023-09-17T09:45:28.243Z,26.86
2023-09-17T09:47:57.861Z,26.96
2023-09-17T09:50:27.611Z,27.07
2023-09-17T09:52:55.825Z,27.19
2023-09-17T09:55:27.986Z,27.25
2023-09-17T09:57:56.267Z,27.35
2023-09-17T10:00:27.248Z,27.46
2023-09-17T10:02:55.489Z,27.59
2023-09-17T10:05:35.264Z,27.71
2023-09-17T10:08:05.203Z,27.79
2023-09-17T10:10:33.421Z,27.87
2023-09-17T10:13:05.796Z,27.96
2023-09-17T10:15:35.831Z,28.10
2023-09-17T10:18:10.287Z,28.23
2023-09-17T10:20:39.520Z,28.35
2023-09-17T10:23:08.434Z,28.46
2023-09-17T10:25:37.121Z,28.53
2023-09-17T10:28:06.364Z,28.58
2023-09-17T10:30:35.495Z,28.66
2023-09-17T10:33:05.993Z,28.75
2023-09-17T10:35:35.009Z,28.86
2023-09-17T10:38:05.476Z,28.98
2023-09-17T10:40:35.737Z,29.12
2023-09-17T10:43:06.884Z,29.23
2023-09-17T10:45:41.875Z,29.35
2023-09-17T10:48:12.173Z,29.46
2023-09-17T10:50:42.669Z,29.56
2023-09-17T10:53:11.383Z,29.68
2023-09-17T10:55:45.372Z,29.83
2023-09-17T10:58:21.352Z,29.95
2023-09-17T11:00:50.725Z,30.02
2023-09-17T11:03:23.357Z,30.22
2023-09-17T11:05:54.044Z,30.51
2023-09-17T11:08:22.499Z,30.84
2023-09-17T11:10:51.060Z,31.17
2023-09-17T11:13:20.637Z,31.49
2023-09-17T11:15:52.112Z,31.74
2023-09-17T11:18:20.917Z,31.86
2023-09-17T11:21:07.517Z,32.00
2023-09-17T11:23:45.223Z,32.28
2023-09-17T11:26:15.124Z,32.59
2023-09-17T11:28:43.522Z,32.89
2023-09-17T11:31:14.861Z,33.30
2023-09-17T11:33:43.117Z,33.69
2023-09-17T11:36:12.513Z,34.04
2023-09-17T11:38:46.402Z,34.42
2023-09-17T11:41:16.551Z,34.58
2023-09-17T11:43:54.744Z,34.56
2023-09-17T11:46:23.998Z,34.51
2023-09-17T11:48:52.302Z,34.67
2023-09-17T11:51:28.812Z,34.79
2023-09-17T11:54:01.175Z,34.83
2023-09-17T11:56:31.874Z,35.07
2023-09-17T11:59:05.468Z,35.39
2023-09-17T12:01:46.352Z,35.67
2023-09-17T12:04:14.860Z,35.78
2023-09-17T12:06:44.471Z,35.63
2023-09-17T12:09:29.324Z,35.43
2023-09-17T12:12:00.982Z,35.32
2023-09-17T12:14:28.724Z,35.36
2023-09-17T12:16:56.630Z,35.49
2023-09-17T12:19:25.413Z,35.69
2023-09-17T12:21:55.903Z,35.94
2023-09-17T12:24:48.055Z,36.17
2023-09-17T12:27:25.861Z,36.43
2023-09-17T12:29:54.669Z,36.73
2023-09-17T12:32:27.426Z,36.94
2023-09-17T12:34:55.738Z,36.97
2023-09-17T12:37:26.366Z,37.06
2023-09-17T12:39:53.876Z,37.31
2023-09-17T12:42:24.889Z,37.65
2023-09-17T12:44:54.367Z,37.94
2023-09-17T12:47:25.571Z,37.99
2023-09-17T12:50:02.489Z,37.90
2023-09-17T12:52:29.717Z,37.79
2023-09-17T12:55:01.814Z,37.87
2023-09-17T12:57:31.074Z,38.02
2023-09-17T12:59:59.790Z,38.08
2023-09-17T13:02:32.918Z,38.06
2023-09-17T13:05:05.164Z,38.00
2023-09-17T13:07:40.037Z,37.92
2023-09-17T13:10:09.275Z,37.80
2023-09-17T13:12:37.221Z,37.81
2023-09-17T13:15:05.628Z,37.84
2023-09-17T13:17:33.516Z,37.87
2023-09-17T13:20:01.021Z,37.80
2023-09-17T13:22:30.715Z,37.65
2023-09-17T13:24:58.226Z,37.58
2023-09-17T13:27:30.358Z,37.58
2023-09-17T13:29:59.045Z,37.65
2023-09-17T13:32:27.523Z,37.55
2023-09-17T13:34:54.724Z,37.35
2023-09-17T13:37:22.796Z,37.10
2023-09-17T13:39:50.732Z,36.73
2023-09-17T13:42:19.354Z,36.22
2023-09-17T13:44:47.533Z,35.79
2023-09-17T13:47:15.444Z,35.46
2023-09-17T13:49:42.968Z,35.20
2023-09-17T13:52:11.337Z,35.04
2023-09-17T13:54:40.074Z,34.85
2023-09-17T13:57:07.769Z,34.79
2023-09-17T13:59:36.783Z,35.06
2023-09-17T14:02:05.755Z,35.37
2023-09-17T14:04:33.906Z,35.36
2023-09-17T14:07:01.101Z,35.30
2023-09-17T14:09:28.235Z,35.58
2023-09-17T14:11:56.123Z,36.21
2023-09-17T14:14:23.857Z,36.89
2023-09-17T14:16:51.130Z,37.38
2023-09-17T14:19:19.794Z,37.77
2023-09-17T14:21:47.923Z,38.30
2023-09-17T14:24:15.727Z,38.98
2023-09-17T14:26:44.418Z,39.72
2023-09-17T14:29:11.719Z,40.48
2023-09-17T14:31:40.959Z,41.27
2023-09-17T14:34:10.811Z,42.01
2023-09-17T14:36:38.699Z,42.64
2023-09-17T14:39:05.835Z,43.18
2023-09-17T14:41:33.031Z,43.58
2023-09-17T14:44:00.631Z,43.94
2023-09-17T14:46:27.839Z,44.32
2023-09-17T14:48:55.332Z,44.64
2023-09-17T14:51:22.834Z,44.78
2023-09-17T14:53:50.670Z,44.70
2023-09-17T14:56:17.878Z,44.55
2023-09-17T14:58:46.152Z,44.61
2023-09-17T15:01:30.337Z,44.73
2023-09-17T15:04:01.478Z,44.77
2023-09-17T15:06:30.164Z,44.70
2023-09-17T15:09:00.457Z,44.47
2023-09-17T15:11:27.624Z,44.40
2023-09-17T15:13:54.762Z,44.39
2023-09-17T15:16:22.197Z,44.14
2023-09-17T15:18:49.682Z,43.64
2023-09-17T15:21:17.204Z,42.95
2023-09-17T15:23:44.877Z,41.98
2023-09-17T15:26:12.927Z,41.68
2023-09-17T15:28:41.045Z,41.88
2023-09-17T15:31:08.191Z,42.22
2023-09-17T15:33:39.502Z,42.58
2023-09-17T15:36:09.045Z,42.89
2023-09-17T15:38:36.371Z,43.12
2023-09-17T15:41:05.768Z,43.11
2023-09-17T15:43:36.430Z,42.47
2023-09-17T15:46:07.071Z,41.47
2023-09-17T15:48:36.384Z,40.41
2023-09-17T15:51:07.277Z,39.42
2023-09-17T15:53:34.546Z,38.55
2023-09-17T15:56:01.993Z,37.81
2023-09-17T15:58:29.866Z,37.25
2023-09-17T16:00:58.886Z,36.66
2023-09-17T16:03:27.302Z,35.94
2023-09-17T16:05:56.036Z,35.41
2023-09-17T16:08:23.863Z,35.18
2023-09-17T16:10:52.104Z,34.96
2023-09-17T16:13:19.762Z,34.78
2023-09-17T16:15:46.871Z,34.48
2023-09-17T16:18:14.590Z,33.98
2023-09-17T16:20:42.330Z,33.49
2023-09-17T16:23:13.623Z,33.02
2023-09-17T16:25:41.485Z,32.47
2023-09-17T16:28:09.424Z,31.89
2023-09-17T16:30:36.620Z,31.32
2023-09-17T16:33:04.635Z,30.74
2023-09-17T16:35:32.556Z,30.21
2023-09-17T16:37:59.904Z,29.67
2023-09-17T16:40:27.135Z,29.17
2023-09-17T16:43:07.296Z,28.70
2023-09-17T16:45:37.968Z,28.21
2023-09-17T16:48:06.555Z,27.76
2023-09-17T16:50:33.993Z,27.32
2023-09-17T16:53:01.376Z,26.91
2023-09-17T16:55:28.751Z,26.52
2023-09-17T16:57:56.920Z,26.13
2023-09-17T17:00:24.601Z,25.74
2023-09-17T17:02:53.154Z,25.36
2023-09-17T17:05:22.659Z,25.00
2023-09-17T17:07:51.151Z,24.66
2023-09-17T17:10:18.913Z,24.33
2023-09-17T17:12:47.242Z,24.01
2023-09-17T17:15:15.295Z,23.69
2023-09-17T17:17:43.024Z,23.40
2023-09-17T17:20:10.465Z,23.11
2023-09-17T17:22:46.287Z,23.07
2023-09-17T17:25:13.895Z,23.70
2023-09-17T17:27:41.682Z,24.27
2023-09-17T17:30:12.584Z,24.64
2023-09-17T17:32:45.563Z,24.29
2023-09-17T17:35:14.884Z,23.63
2023-09-17T17:37:44.503Z,23.10
2023-09-17T17:40:14.667Z,22.68
2023-09-17T17:42:41.865Z,22.32
2023-09-17T17:45:14.338Z,22.43
2023-09-17T17:47:43.056Z,23.06
2023-09-17T17:50:14.636Z,23.58
2023-09-17T17:52:48.619Z,23.96
2023-09-17T17:55:17.028Z,24.22
2023-09-17T17:57:46.674Z,23.92
2023-09-17T18:00:19.092Z,23.20
2023-09-17T18:02:49.159Z,22.60
2023-09-17T18:05:26.233Z,22.14
2023-09-17T18:07:55.502Z,22.06
2023-09-17T18:10:24.333Z,22.62
2023-09-17T18:12:57.828Z,23.12
2023-09-17T18:15:28.879Z,23.49
2023-09-17T18:17:57.163Z,23.77
2023-09-17T18:20:41.403Z,23.62
2023-09-17T18:23:21.224Z,22.85
2023-09-17T18:25:50.754Z,22.21
2023-09-17T18:28:24.694Z,21.78
2023-09-17T18:30:55.508Z,21.98
2023-09-17T18:33:25.797Z,22.54
2023-09-17T18:35:56.607Z,22.97
2023-09-17T18:38:24.035Z,23.30
2023-09-17T18:40:55.685Z,23.54
2023-09-17T18:43:29.934Z,23.30
2023-09-17T18:46:04.854Z,22.55
2023-09-17T18:48:34.937Z,21.91
2023-09-17T18:51:21.738Z,21.46
2023-09-17T18:53:54.602Z,21.77
2023-09-17T18:57:06.807Z,22.32
2023-09-17T18:59:46.248Z,22.79
2023-09-17T19:02:18.456Z,23.09
2023-09-17T19:04:49.270Z,23.31
2023-09-17T19:07:39.963Z,23.12
2023-09-17T19:10:22.132Z,22.29
2023-09-17T19:13:11.499Z,21.64
2023-09-17T19:15:44.556Z,21.58
2023-09-17T19:18:26.845Z,22.12
2023-09-17T19:21:24.070Z,22.57
2023-09-17T19:24:17.474Z,22.90
2023-09-17T19:27:26.971Z,23.14
2023-09-17T19:30:16.887Z,23.32
2023-09-17T19:32:53.740Z,22.77
2023-09-17T19:35:37.984Z,22.01
2023-09-17T19:38:36.632Z,21.36
2023-09-17T19:41:37.416Z,21.41
2023-09-17T19:44:31.267Z,22.03
2023-09-17T19:50:15.929Z,22.76
2023-09-17T19:53:30.428Z,22.97
2023-09-17T19:56:36.489Z,23.12
2023-09-17T20:03:05.646Z,21.49
2023-09-17T20:09:45.018Z,21.39
2023-09-17T20:12:51.956Z,21.94
2023-09-17T20:16:07.935Z,22.35
2023-09-17T20:18:56.303Z,22.67
2023-09-17T20:25:09.360Z,22.47
2023-09-17T20:35:42.653Z,21.32
2023-09-17T20:39:03.779Z,21.92
2023-09-17T20:54:06.701Z,22.28
2023-09-17T21:20:24.749Z,22.41
2023-09-17T21:29:32.485Z,21.10
2023-09-17T21:32:18.128Z,21.64
2023-09-17T21:47:32.033Z,22.32
2023-09-17T21:50:26.380Z,21.40
2023-09-17T21:53:33.545Z,20.66
2023-09-17T22:02:21.197Z,21.87
2023-09-17T22:05:20.439Z,22.15
2023-09-17T22:08:04.837Z,22.36
2023-09-17T22:10:55.245Z,22.54
2023-09-17T22:13:40.050Z,22.69
2023-09-17T22:16:26.147Z,22.76
2023-09-17T22:25:18.862Z,21.06
2023-09-17T22:28:17.065Z,21.61
2023-09-17T22:31:01.499Z,22.02
2023-09-17T22:33:48.369Z,22.29
2023-09-17T22:36:21.548Z,22.49
2023-09-17T22:38:55.950Z,22.64
2023-09-17T22:41:31.355Z,22.78
2023-09-17T22:46:57.481Z,22.23
2023-09-17T22:49:44.647Z,21.40
2023-09-17T22:58:08.815Z,21.52
2023-09-17T23:00:38.850Z,21.85
2023-09-17T23:03:08.948Z,22.07
2023-09-17T23:05:41.478Z,22.22
2023-09-17T23:08:09.320Z,22.35
2023-09-17T23:10:37.960Z,22.45
2023-09-17T23:13:09.212Z,22.53
2023-09-17T23:15:44.829Z,22.61
2023-09-17T23:18:17.542Z,22.61
2023-09-17T23:20:56.885Z,21.92
2023-09-17T23:23:29.255Z,21.06
2023-09-17T23:26:02.890Z,20.78
2023-09-17T23:28:44.086Z,21.23
2023-09-17T23:31:19.511Z,21.62
2023-09-17T23:33:52.702Z,21.90
2023-09-17T23:36:35.228Z,22.10
2023-09-17T23:39:12.370Z,22.26
2023-09-17T23:41:44.511Z,22.39
2023-09-17T23:44:14.377Z,22.49
2023-09-17T23:46:54.268Z,22.57
2023-09-17T23:49:23.130Z,22.42
2023-09-17T23:51:51.699Z,21.62
2023-09-17T23:54:20.533Z,20.88
2023-09-17T23:56:49.842Z,20.68
2023-09-17T23:59:18.959Z,21.12
